createdAt,value
2022-12-26T00:00:12.536Z,4.12
2022-12-26T00:03:03.381Z,4.12
2022-12-26T00:05:36.667Z,4.12
2022-12-26T00:08:07.725Z,4.11
2022-12-26T00:10:38.305Z,4.10
2022-12-26T00:13:37.128Z,4.09
2022-12-26T00:15:56.503Z,4.09
2022-12-26T00:18:24.969Z,4.09
2022-12-26T00:20:54.480Z,4.10
2022-12-26T00:23:23.697Z,4.11
2022-12-26T00:25:53.222Z,4.11
2022-12-26T00:28:21.879Z,4.11
2022-12-26T00:30:50.440Z,4.10
2022-12-26T00:33:18.915Z,4.10
2022-12-26T00:35:47.312Z,4.10
2022-12-26T00:38:16.377Z,4.11
2022-12-26T00:40:44.718Z,4.10
2022-12-26T00:43:14.390Z,4.11
2022-12-26T00:45:46.444Z,4.12
2022-12-26T00:48:16.123Z,4.15
2022-12-26T00:50:43.700Z,4.16
2022-12-26T00:53:13.068Z,4.18
2022-12-26T00:55:43.675Z,4.19
2022-12-26T00:58:16.121Z,4.21
2022-12-26T01:00:43.952Z,4.23
2022-12-26T01:03:12.927Z,4.24
2022-12-26T01:05:46.505Z,4.24
2022-12-26T01:08:22.945Z,4.26
2022-12-26T01:10:54.995Z,4.27
2022-12-26T01:13:26.316Z,4.28
2022-12-26T01:15:54.191Z,4.29
2022-12-26T01:18:22.629Z,4.30
2022-12-26T01:20:51.328Z,4.31
2022-12-26T01:23:19.082Z,4.32
2022-12-26T01:26:17.937Z,4.33
2022-12-26T01:28:37.503Z,4.33
2022-12-26T01:31:06.433Z,4.34
2022-12-26T01:33:35.658Z,4.37
2022-12-26T01:36:03.689Z,4.38
2022-12-26T01:38:31.361Z,4.39
2022-12-26T01:41:19.014Z,4.40
2022-12-26T01:44:00.391Z,4.41
2022-12-26T01:46:37.984Z,4.42
2022-12-26T01:49:30.703Z,4.42
2022-12-26T01:52:04.257Z,4.43
2022-12-26T01:54:42.650Z,4.44
2022-12-26T01:57:18.542Z,4.45
2022-12-26T01:59:50.152Z,4.45
2022-12-26T02:02:21.407Z,4.46
2022-12-26T02:05:10.641Z,4.44
2022-12-26T02:07:41.756Z,4.44
2022-12-26T02:10:18.701Z,4.42
2022-12-26T02:12:48.148Z,4.42
2022-12-26T02:15:18.274Z,4.41
2022-12-26T02:17:48.531Z,4.41
2022-12-26T02:20:25.859Z,4.42
2022-12-26T02:22:57.869Z,4.43
2022-12-26T02:26:00.655Z,4.41
2022-12-26T02:28:46.883Z,4.42
2022-12-26T02:31:25.073Z,4.42
2022-12-26T02:42:39.402Z,4.42
2022-12-26T02:46:02.813Z,4.42
2022-12-26T02:49:02.560Z,4.43
2022-12-26T02:51:59.496Z,4.43
2022-12-26T02:55:12.621Z,4.44
2022-12-26T02:58:15.068Z,4.47
2022-12-26T03:01:06.715Z,4.50
2022-12-26T03:03:55.619Z,4.50
2022-12-26T03:06:49.550Z,4.50
2022-12-26T03:09:46.135Z,4.51
2022-12-26T03:12:38.275Z,4.51
2022-12-26T03:15:13.186Z,4.49
2022-12-26T03:17:42.920Z,4.49
2022-12-26T03:20:30.782Z,4.48
2022-12-26T03:23:01.767Z,4.46
2022-12-26T03:25:48.682Z,4.46
2022-12-26T03:28:19.866Z,4.47
2022-12-26T03:30:52.165Z,4.49
2022-12-26T03:33:38.684Z,4.51
2022-12-26T03:36:09.969Z,4.53
2022-12-26T03:38:58.081Z,4.57
2022-12-26T03:41:52.285Z,4.58
2022-12-26T03:45:13.499Z,4.61
2022-12-26T03:48:35.777Z,4.63
2022-12-26T03:51:32.866Z,4.65
2022-12-26T03:54:33.000Z,4.66
2022-12-26T03:57:48.658Z,4.68
2022-12-26T04:00:53.712Z,4.68
2022-12-26T04:04:02.774Z,4.68
2022-12-26T04:07:02.037Z,4.67
2022-12-26T04:10:16.554Z,4.66
2022-12-26T04:13:06.819Z,4.66
2022-12-26T04:16:05.363Z,4.64
2022-12-26T04:19:18.260Z,4.65
2022-12-26T04:22:29.708Z,4.65
2022-12-26T04:25:49.377Z,4.65
2022-12-26T04:28:33.224Z,4.65
2022-12-26T04:31:46.624Z,4.65
2022-12-26T04:35:19.423Z,4.68
2022-12-26T04:38:09.648Z,4.70
2022-12-26T04:41:02.960Z,4.70
2022-12-26T04:43:52.055Z,4.70
2022-12-26T04:46:52.217Z,4.70
2022-12-26T04:49:57.291Z,4.70
2022-12-26T04:52:26.992Z,4.71
2022-12-26T04:54:55.891Z,4.71
2022-12-26T04:57:24.018Z,4.73
2022-12-26T05:03:04.211Z,4.76
2022-12-26T05:06:16.148Z,4.77
2022-12-26T05:09:05.267Z,4.78
2022-12-26T05:11:35.439Z,4.79
2022-12-26T05:14:04.411Z,4.80
2022-12-26T05:16:52.986Z,4.82
2022-12-26T05:19:42.240Z,4.84
2022-12-26T05:22:44.153Z,4.85
2022-12-26T05:25:40.846Z,4.88
2022-12-26T05:28:29.710Z,4.87
2022-12-26T05:30:59.605Z,4.88
2022-12-26T05:33:47.325Z,4.91
2022-12-26T05:36:19.784Z,4.93
2022-12-26T05:38:48.892Z,4.93
2022-12-26T05:41:18.089Z,4.93
2022-12-26T05:43:48.677Z,4.93
2022-12-26T05:46:19.250Z,4.93
2022-12-26T05:48:50.446Z,4.93
2022-12-26T06:41:45.107Z,5.00
2022-12-26T06:44:18.102Z,5.01
2022-12-26T06:47:20.861Z,5.02
2022-12-26T06:49:52.026Z,5.02
2022-12-26T06:52:21.488Z,5.02
2022-12-26T06:54:51.756Z,5.02
2022-12-26T06:57:20.830Z,5.02
2022-12-26T06:59:50.048Z,5.03
2022-12-26T07:02:20.873Z,5.04
2022-12-26T07:04:49.624Z,5.05
2022-12-26T07:07:20.478Z,5.07
2022-12-26T07:09:49.631Z,5.08
2022-12-26T07:12:21.478Z,5.09
2022-12-26T07:14:50.368Z,5.11
2022-12-26T07:17:22.967Z,5.12
2022-12-26T07:19:52.127Z,5.13
2022-12-26T07:22:21.789Z,5.16
2022-12-26T07:24:49.632Z,5.17
2022-12-26T07:27:17.522Z,5.17
2022-12-26T07:29:47.099Z,5.18
2022-12-26T07:32:19.085Z,5.19
2022-12-26T07:34:47.819Z,5.19
2022-12-26T07:37:16.784Z,5.20
2022-12-26T07:39:45.399Z,5.22
2022-12-26T07:42:13.273Z,5.23
2022-12-26T07:44:42.744Z,5.24
2022-12-26T07:47:40.315Z,5.24
2022-12-26T07:50:09.797Z,5.26
2022-12-26T07:52:37.821Z,5.27
2022-12-26T07:55:11.017Z,5.28
2022-12-26T07:57:48.484Z,5.30
2022-12-26T08:00:19.065Z,5.31
2022-12-26T08:02:53.154Z,5.34
2022-12-26T08:05:21.650Z,5.35
2022-12-26T08:07:50.320Z,5.38
2022-12-26T08:10:18.304Z,5.41
2022-12-26T08:12:47.580Z,5.44
2022-12-26T08:15:18.556Z,5.47
2022-12-26T08:17:46.658Z,5.48
2022-12-26T08:20:15.020Z,5.50
2022-12-26T08:22:45.585Z,5.54
2022-12-26T08:25:16.811Z,5.56
2022-12-26T08:27:50.153Z,5.59
2022-12-26T08:30:18.304Z,5.60
2022-12-26T08:32:48.325Z,5.64
2022-12-26T08:35:19.230Z,5.69
2022-12-26T08:37:49.254Z,5.72
2022-12-26T08:40:39.773Z,5.76
2022-12-26T08:43:42.152Z,5.78
2022-12-26T08:45:59.199Z,5.81
2022-12-26T08:52:43.952Z,5.87
2022-12-26T08:55:25.627Z,5.87
2022-12-26T09:06:48.800Z,5.95
2022-12-26T09:09:37.643Z,5.98
2022-12-26T09:12:28.861Z,6.03
2022-12-26T09:15:12.034Z,6.06
2022-12-26T09:18:01.785Z,6.08
2022-12-26T10:43:35.725Z,7.46
2022-12-26T10:46:34.309Z,7.55
2022-12-26T10:49:32.795Z,7.64
2022-12-26T10:52:05.056Z,7.72
2022-12-26T10:54:42.144Z,7.80
2022-12-26T10:57:11.073Z,7.85
2022-12-26T10:59:47.363Z,7.90
2022-12-26T11:02:29.546Z,7.96
2022-12-26T11:05:21.797Z,8.07
2022-12-26T11:08:16.679Z,8.23
2022-12-26T11:11:01.699Z,8.35
2022-12-26T11:13:38.114Z,8.45
2022-12-26T11:16:08.312Z,8.52
2022-12-26T11:18:52.682Z,8.58
2022-12-26T11:21:31.949Z,8.60
2022-12-26T11:24:08.838Z,8.63
2022-12-26T11:26:40.427Z,8.64
2022-12-26T11:29:22.055Z,8.63
2022-12-26T11:32:02.498Z,8.62
2022-12-26T11:34:37.855Z,8.59
2022-12-26T11:37:23.977Z,8.56
2022-12-26T11:39:55.191Z,8.55
2022-12-26T11:42:25.949Z,8.56
2022-12-26T11:45:00.172Z,8.68
2022-12-26T11:47:32.782Z,8.93
2022-12-26T11:50:04.923Z,9.25
2022-12-26T11:52:44.273Z,9.48
2022-12-26T11:55:30.592Z,9.59
2022-12-26T11:58:20.670Z,9.82
2022-12-26T12:00:53.991Z,10.06
2022-12-26T12:03:36.734Z,9.96
2022-12-26T12:06:16.133Z,9.91
2022-12-26T12:09:25.207Z,10.01
2022-12-26T12:12:01.908Z,9.99
2022-12-26T12:15:00.450Z,9.91
2022-12-26T12:18:05.330Z,9.81
2022-12-26T12:20:51.869Z,9.69
2022-12-26T12:23:49.969Z,9.65
2022-12-26T12:26:30.397Z,9.63
2022-12-26T12:29:23.105Z,9.53
2022-12-26T12:32:18.854Z,9.39
2022-12-26T12:35:08.306Z,9.25
2022-12-26T12:38:02.356Z,9.15
2022-12-26T12:40:54.927Z,9.04
2022-12-26T12:43:38.108Z,8.96
2022-12-26T12:46:31.013Z,8.90
2022-12-26T12:49:12.129Z,8.86
2022-12-26T12:51:46.854Z,8.84
2022-12-26T12:54:36.570Z,8.83
2022-12-26T12:57:29.988Z,8.82
2022-12-26T13:00:14.937Z,8.82
2022-12-26T13:02:46.571Z,8.81
2022-12-26T13:05:17.315Z,8.83
2022-12-26T13:07:54.233Z,8.86
2022-12-26T13:10:29.354Z,8.90
2022-12-26T13:12:59.509Z,8.92
2022-12-26T13:15:34.508Z,8.95
2022-12-26T13:18:24.505Z,8.97
2022-12-26T13:21:08.995Z,8.99
2022-12-26T13:24:07.047Z,8.99
2022-12-26T13:26:39.710Z,9.00
2022-12-26T13:29:32.348Z,8.99
2022-12-26T13:32:04.316Z,8.97
2022-12-26T13:34:32.824Z,8.96
2022-12-26T13:37:00.917Z,8.94
2022-12-26T13:39:36.540Z,8.90
2022-12-26T13:42:50.148Z,8.86
2022-12-26T13:45:36.942Z,8.82
2022-12-26T13:48:55.104Z,8.81
2022-12-26T13:51:44.138Z,8.80
2022-12-26T13:54:15.289Z,8.78
2022-12-26T13:56:46.181Z,8.74
2022-12-26T13:59:41.404Z,8.70
2022-12-26T14:03:16.708Z,8.69
2022-12-26T14:05:55.563Z,8.67
2022-12-26T14:09:02.200Z,8.65
2022-12-26T14:11:46.567Z,8.62
2022-12-26T14:14:50.897Z,8.59
2022-12-26T14:17:33.299Z,8.57
2022-12-26T14:20:16.412Z,8.53
2022-12-26T14:23:03.596Z,8.49
2022-12-26T14:25:50.701Z,8.47
2022-12-26T14:28:36.144Z,8.46
2022-12-26T14:31:15.990Z,8.43
2022-12-26T14:34:02.984Z,8.43
2022-12-26T14:36:51.245Z,8.42
2022-12-26T14:39:30.944Z,8.40
2022-12-26T14:42:26.423Z,8.39
2022-12-26T14:44:59.512Z,8.40
2022-12-26T14:47:57.407Z,8.42
2022-12-26T14:50:41.924Z,8.43
2022-12-26T14:53:28.261Z,8.43
2022-12-26T14:56:04.599Z,8.45
2022-12-26T14:58:32.287Z,8.48
2022-12-26T15:01:23.117Z,8.51
2022-12-26T15:04:08.844Z,8.52
2022-12-26T15:06:55.614Z,8.51
2022-12-26T15:09:41.931Z,8.48
2022-12-26T15:12:31.299Z,8.45
2022-12-26T15:15:23.331Z,8.42
2022-12-26T15:18:06.171Z,8.42
2022-12-26T15:20:33.666Z,8.43
2022-12-26T15:23:33.788Z,8.43
2022-12-26T15:27:03.671Z,8.42
2022-12-26T15:30:14.023Z,8.38
2022-12-26T15:32:47.240Z,8.35
2022-12-26T15:35:17.829Z,8.32
2022-12-26T15:38:23.121Z,8.27
2022-12-26T15:41:10.799Z,8.22
2022-12-26T15:43:44.415Z,8.21
2022-12-26T15:46:22.349Z,8.19
2022-12-26T15:49:16.500Z,8.18
2022-12-26T15:52:08.880Z,8.15
2022-12-26T15:54:56.262Z,8.14
2022-12-26T15:57:24.719Z,8.13
2022-12-26T15:59:55.171Z,8.12
2022-12-26T16:02:27.160Z,8.11
2022-12-26T16:05:10.839Z,8.09
2022-12-26T16:07:50.601Z,8.08
2022-12-26T16:10:24.801Z,8.08
2022-12-26T16:13:14.420Z,8.08
2022-12-26T16:15:50.081Z,8.09
2022-12-26T16:18:25.603Z,8.09
2022-12-26T16:21:16.633Z,8.09
2022-12-26T16:23:47.363Z,8.09
2022-12-26T16:26:25.206Z,8.10
2022-12-26T16:28:54.843Z,8.11
2022-12-26T16:31:28.757Z,8.12
2022-12-26T16:33:59.001Z,8.13
2022-12-26T16:36:32.627Z,8.12
2022-12-26T16:39:00.850Z,8.13
2022-12-26T16:41:31.807Z,8.14
2022-12-26T16:44:30.859Z,8.11
2022-12-26T16:47:06.696Z,8.07
2022-12-26T16:49:36.784Z,8.03
2022-12-26T16:52:07.395Z,8.01
2022-12-26T16:54:40.040Z,8.02
2022-12-26T16:57:20.299Z,8.04
2022-12-26T16:59:54.939Z,8.07
2022-12-26T17:02:31.531Z,8.08
2022-12-26T17:05:03.412Z,8.06
2022-12-26T17:07:36.462Z,8.04
2022-12-26T17:10:12.218Z,8.03
2022-12-26T17:12:42.041Z,8.02
2022-12-26T17:15:24.790Z,7.99
2022-12-26T17:17:52.639Z,7.97
2022-12-26T17:20:22.926Z,7.96
2022-12-26T17:22:56.346Z,7.97
2022-12-26T17:25:28.037Z,8.01
2022-12-26T17:28:19.644Z,8.02
2022-12-26T17:30:49.461Z,8.01
2022-12-26T17:33:28.053Z,7.99
2022-12-26T17:38:51.243Z,7.97
2022-12-26T17:41:19.756Z,7.96
2022-12-26T17:43:48.554Z,7.95
2022-12-26T17:46:18.617Z,7.93
2022-12-26T17:48:50.631Z,7.93
2022-12-26T17:51:19.643Z,7.92
2022-12-26T17:53:50.902Z,7.90
2022-12-26T17:56:25.544Z,7.87
2022-12-26T17:58:55.448Z,7.85
2022-12-26T18:01:23.664Z,7.83
2022-12-26T18:03:58.263Z,7.83
2022-12-26T18:06:27.075Z,7.82
2022-12-26T18:08:55.893Z,7.84
2022-12-26T18:11:26.394Z,7.85
2022-12-26T18:13:55.438Z,7.86
2022-12-26T18:16:27.925Z,7.88
2022-12-26T18:18:56.525Z,7.89
2022-12-26T18:21:25.544Z,7.88
2022-12-26T18:23:56.339Z,7.89
2022-12-26T18:26:28.937Z,7.89
2022-12-26T18:29:00.102Z,7.88
2022-12-26T18:31:29.376Z,7.87
2022-12-26T18:33:59.071Z,7.88
2022-12-26T18:36:36.075Z,7.88
2022-12-26T18:39:06.113Z,7.89
2022-12-26T18:41:37.811Z,7.88
2022-12-26T18:44:05.909Z,7.87
2022-12-26T18:46:35.288Z,7.86
2022-12-26T18:49:04.036Z,7.85
2022-12-26T18:51:38.679Z,7.84
2022-12-26T18:54:11.888Z,7.83
2022-12-26T18:56:41.255Z,7.82
2022-12-26T18:59:12.421Z,7.82
2022-12-26T19:01:42.335Z,7.82
2022-12-26T19:04:14.704Z,7.81
2022-12-26T19:06:43.828Z,7.81
2022-12-26T19:09:14.798Z,7.80
2022-12-26T19:11:43.280Z,7.77
2022-12-26T19:14:22.656Z,7.77
2022-12-26T19:16:51.563Z,7.75
2022-12-26T19:19:20.577Z,7.72
2022-12-26T19:21:48.514Z,7.71
2022-12-26T19:24:17.579Z,7.69
2022-12-26T19:26:45.514Z,7.69
2022-12-26T19:29:14.139Z,7.69
2022-12-26T19:31:44.561Z,7.71
2022-12-26T19:34:13.685Z,7.73
2022-12-26T19:36:43.673Z,7.72
2022-12-26T19:39:15.800Z,7.74
2022-12-26T19:41:53.032Z,7.76
2022-12-26T19:44:20.844Z,7.76
2022-12-26T19:46:49.402Z,7.76
2022-12-26T19:49:39.764Z,7.75
2022-12-26T19:52:12.445Z,7.75
2022-12-26T19:54:40.273Z,7.75
2022-12-26T19:57:08.575Z,7.76
2022-12-26T19:59:39.645Z,7.76
2022-12-26T20:02:15.037Z,7.76
2022-12-26T20:04:45.500Z,7.75
2022-12-26T20:07:17.716Z,7.74
2022-12-26T20:09:45.749Z,7.74
2022-12-26T20:12:13.833Z,7.73
2022-12-26T20:14:41.940Z,7.73
2022-12-26T20:17:12.083Z,7.73
2022-12-26T20:19:40.327Z,7.74
2022-12-26T20:22:11.473Z,7.74
2022-12-26T20:24:40.290Z,7.75
2022-12-26T20:27:08.489Z,7.74
2022-12-26T20:29:36.673Z,7.72
2022-12-26T20:32:05.104Z,7.70
2022-12-26T20:34:34.394Z,7.66
2022-12-26T20:37:04.793Z,7.62
2022-12-26T20:39:32.885Z,7.59
2022-12-26T20:42:04.269Z,7.56
2022-12-26T20:44:41.193Z,7.51
2022-12-26T20:47:10.639Z,7.47
2022-12-26T20:49:38.312Z,7.43
2022-12-26T20:52:09.159Z,7.41
2022-12-26T20:54:37.948Z,7.39
2022-12-26T20:57:05.687Z,7.35
2022-12-26T20:59:33.764Z,7.34
2022-12-26T21:02:05.752Z,7.34
2022-12-26T21:04:35.784Z,7.35
2022-12-26T21:07:05.398Z,7.37
2022-12-26T21:09:34.243Z,7.40
2022-12-26T21:12:03.140Z,7.40
2022-12-26T21:14:32.347Z,7.41
2022-12-26T21:17:03.966Z,7.40
2022-12-26T21:19:34.578Z,7.40
2022-12-26T21:22:03.688Z,7.42
2022-12-26T21:24:33.788Z,7.43
2022-12-26T21:27:02.574Z,7.45
2022-12-26T21:29:33.715Z,7.48
2022-12-26T21:32:03.600Z,7.49
2022-12-26T21:34:34.641Z,7.51
2022-12-26T21:37:22.066Z,7.54
2022-12-26T21:39:51.391Z,7.55
2022-12-26T21:42:19.406Z,7.57
2022-12-26T21:44:48.999Z,7.58
2022-12-26T21:47:45.562Z,7.59
2022-12-26T21:50:13.302Z,7.62
2022-12-26T21:52:42.524Z,7.64
2022-12-26T21:55:27.330Z,7.66
2022-12-26T21:58:00.149Z,7.66
2022-12-26T22:00:32.124Z,7.67
2022-12-26T22:03:18.338Z,7.66
2022-12-26T22:05:46.528Z,7.64
2022-12-26T22:08:14.994Z,7.65
2022-12-26T22:11:14.801Z,7.65
2022-12-26T22:13:45.307Z,7.64
2022-12-26T22:16:13.811Z,7.63
2022-12-26T22:18:49.901Z,7.62
2022-12-26T22:21:20.603Z,7.62
2022-12-26T22:23:50.402Z,7.61
2022-12-26T22:26:20.720Z,7.60
2022-12-26T22:28:48.452Z,7.60
2022-12-26T22:31:25.371Z,7.58
2022-12-26T22:34:21.246Z,7.56
2022-12-26T22:36:50.864Z,7.56
2022-12-26T22:39:18.498Z,7.55
2022-12-26T22:41:46.792Z,7.53
2022-12-26T22:44:15.206Z,7.51
2022-12-26T22:46:44.871Z,7.50
2022-12-26T22:49:12.588Z,7.49
2022-12-26T22:51:42.709Z,7.46
2022-12-26T22:54:11.093Z,7.43
2022-12-26T22:56:39.296Z,7.39
2022-12-26T22:59:08.438Z,7.36
2022-12-26T23:01:39.544Z,7.35
2022-12-26T23:04:07.811Z,7.32
2022-12-26T23:06:37.705Z,7.32
2022-12-26T23:09:12.037Z,7.32
2022-12-26T23:11:40.786Z,7.31
2022-12-26T23:14:18.584Z,7.29
2022-12-26T23:16:58.377Z,7.28
2022-12-26T23:19:52.776Z,7.27
2022-12-26T23:22:22.527Z,7.25
2022-12-26T23:24:50.271Z,7.23
2022-12-26T23:27:36.496Z,7.21
2022-12-26T23:30:20.758Z,7.20
2022-12-26T23:32:52.506Z,7.19
2022-12-26T23:35:22.099Z,7.19
2022-12-26T23:37:49.963Z,7.21
2022-12-26T23:40:21.248Z,7.22
2022-12-26T23:42:51.406Z,7.22
2022-12-26T23:45:22.597Z,7.22
2022-12-26T23:47:51.029Z,7.24
2022-12-26T23:50:19.194Z,7.24
2022-12-26T23:52:47.009Z,7.24
2022-12-26T23:55:17.112Z,7.22
2022-12-26T23:57:44.666Z,7.20
